createdAt,value
2018-09-13T00:01:59.069Z,17.30
2018-09-13T00:04:27.505Z,17.20
2018-09-13T00:06:55.973Z,17.20
2018-09-13T00:09:24.523Z,17.20
2018-09-13T00:11:52.980Z,17.10
2018-09-13T00:14:21.431Z,17.10
2018-09-13T00:16:49.956Z,17.00
2018-09-13T00:19:18.510Z,16.90
2018-09-13T00:21:46.959Z,16.80
2018-09-13T00:24:18.333Z,16.80
2018-09-13T00:26:46.799Z,16.80
2018-09-13T00:29:15.393Z,16.80
2018-09-13T00:31:43.856Z,16.80
2018-09-13T00:34:12.402Z,16.70
2018-09-13T00:36:40.852Z,16.70
2018-09-13T00:39:09.870Z,16.70
2018-09-13T00:41:38.978Z,16.90
2018-09-13T00:44:08.074Z,16.90
2018-09-13T00:46:36.882Z,16.80
2018-09-13T00:49:05.969Z,16.70
2018-09-13T00:51:34.836Z,16.70
2018-09-13T00:54:03.299Z,16.60
2018-09-13T00:56:31.729Z,16.50
2018-09-13T00:59:00.203Z,16.50
2018-09-13T01:01:28.647Z,16.40
2018-09-13T01:03:57.102Z,16.50
2018-09-13T01:06:25.569Z,16.60
2018-09-13T01:08:54.031Z,16.60
2018-09-13T01:11:22.614Z,16.60
2018-09-13T01:13:51.192Z,16.60
2018-09-13T01:16:19.659Z,16.60
2018-09-13T01:18:48.141Z,16.60
2018-09-13T01:21:16.600Z,16.60
2018-09-13T01:23:45.080Z,16.50
2018-09-13T01:26:13.830Z,16.50
2018-09-13T01:28:42.307Z,16.50
2018-09-13T01:31:10.773Z,16.50
2018-09-13T01:33:39.264Z,16.50
2018-09-13T01:36:07.714Z,16.50
2018-09-13T01:38:36.283Z,16.40
2018-09-13T01:41:04.779Z,16.40
2018-09-13T01:43:33.259Z,16.40
2018-09-13T01:46:01.730Z,16.40
2018-09-13T01:48:30.184Z,16.30
2018-09-13T01:50:58.622Z,16.50
2018-09-13T01:53:27.069Z,16.30
2018-09-13T01:55:55.526Z,16.30
2018-09-13T01:58:23.966Z,16.20
2018-09-13T02:00:52.464Z,16.30
2018-09-13T02:03:20.919Z,16.50
2018-09-13T02:05:49.524Z,16.50
2018-09-13T02:08:17.977Z,16.30
2018-09-13T02:10:46.452Z,16.50
2018-09-13T02:13:14.934Z,16.40
2018-09-13T02:15:43.392Z,16.20
2018-09-13T02:18:11.918Z,16.10
2018-09-13T02:20:40.380Z,16.10
2018-09-13T02:23:08.952Z,16.10
2018-09-13T02:25:37.391Z,16.10
2018-09-13T02:28:07.241Z,16.00
2018-09-13T02:30:35.697Z,16.00
2018-09-13T02:33:04.194Z,16.00
2018-09-13T02:35:32.665Z,16.00
2018-09-13T02:38:01.311Z,16.10
2018-09-13T02:40:29.831Z,16.10
2018-09-13T02:42:58.311Z,16.10
2018-09-13T02:45:26.762Z,16.10
2018-09-13T02:47:55.224Z,16.10
2018-09-13T02:50:23.947Z,16.00
2018-09-13T02:52:52.416Z,15.90
2018-09-13T02:55:20.886Z,15.90
2018-09-13T02:57:49.362Z,15.90
2018-09-13T03:00:17.795Z,15.90
2018-09-13T03:02:46.271Z,15.90
2018-09-13T03:05:14.736Z,15.90
2018-09-13T03:07:43.267Z,16.00
2018-09-13T03:10:11.710Z,16.20
2018-09-13T03:12:40.191Z,16.30
2018-09-13T03:15:09.349Z,16.40
2018-09-13T03:17:37.794Z,16.50
2018-09-13T03:20:06.574Z,16.30
2018-09-13T03:22:35.077Z,16.20
2018-09-13T03:25:03.784Z,16.10
2018-09-13T03:27:32.282Z,16.10
2018-09-13T03:30:00.806Z,16.00
2018-09-13T03:32:29.274Z,16.10
2018-09-13T03:34:57.864Z,16.20
2018-09-13T03:37:26.328Z,16.60
2018-09-13T03:39:54.974Z,16.80
2018-09-13T03:42:23.441Z,16.90
2018-09-13T03:44:51.943Z,17.00
2018-09-13T03:47:20.411Z,16.90
2018-09-13T03:49:48.863Z,16.90
2018-09-13T03:52:17.310Z,17.00
2018-09-13T03:54:45.813Z,17.00
2018-09-13T03:57:14.252Z,17.00
2018-09-13T03:59:42.733Z,17.10
2018-09-13T04:02:11.213Z,17.10
2018-09-13T04:04:39.653Z,16.60
2018-09-13T04:07:08.232Z,16.30
2018-09-13T04:09:36.777Z,16.30
2018-09-13T04:12:05.271Z,16.20
2018-09-13T04:14:33.770Z,16.40
2018-09-13T04:17:02.229Z,16.40
2018-09-13T04:19:35.739Z,16.40
2018-09-13T04:22:04.262Z,16.40
2018-09-13T04:24:32.686Z,16.40
2018-09-13T04:27:01.161Z,16.40
2018-09-13T04:29:29.681Z,16.30
2018-09-13T04:31:58.153Z,16.10
2018-09-13T04:34:26.611Z,16.00
2018-09-13T04:36:55.075Z,16.10
2018-09-13T04:39:23.557Z,16.20
2018-09-13T04:41:51.992Z,16.20
2018-09-13T04:44:20.480Z,16.10
2018-09-13T04:46:48.938Z,16.10
2018-09-13T04:49:17.516Z,16.10
2018-09-13T04:51:45.897Z,16.10
2018-09-13T04:54:14.367Z,16.10
2018-09-13T04:56:42.850Z,16.10
2018-09-13T04:59:11.345Z,16.40
2018-09-13T05:01:41.283Z,16.30
2018-09-13T05:04:10.130Z,16.20
2018-09-13T05:06:38.697Z,16.10
2018-09-13T05:09:11.069Z,16.10
2018-09-13T05:11:39.578Z,16.20
2018-09-13T05:14:08.051Z,16.20
2018-09-13T05:16:36.523Z,16.20
2018-09-13T05:19:05.065Z,16.40
2018-09-13T05:21:34.018Z,16.30
2018-09-13T05:24:02.907Z,16.20
2018-09-13T05:26:31.386Z,16.20
2018-09-13T05:28:59.888Z,16.20
2018-09-13T05:31:28.356Z,16.30
2018-09-13T05:33:56.823Z,16.30
2018-09-13T05:36:25.263Z,16.30
2018-09-13T05:38:53.794Z,16.40
2018-09-13T05:41:22.224Z,16.40
2018-09-13T05:43:50.691Z,16.50
2018-09-13T05:46:19.172Z,16.50
2018-09-13T05:48:47.603Z,16.60
2018-09-13T05:51:16.145Z,16.70
2018-09-13T05:53:44.611Z,16.80
2018-09-13T05:56:13.050Z,16.80
2018-09-13T05:58:41.507Z,16.80
2018-09-13T06:01:10.018Z,16.80
2018-09-13T06:03:38.488Z,16.90
2018-09-13T06:06:06.955Z,16.90
2018-09-13T06:08:35.464Z,16.90
2018-09-13T06:11:03.950Z,16.90
2018-09-13T06:13:32.512Z,17.00
2018-09-13T06:16:00.923Z,17.00
2018-09-13T06:18:29.399Z,17.00
2018-09-13T06:20:57.979Z,16.90
2018-09-13T06:23:26.482Z,17.10
2018-09-13T06:25:54.914Z,17.10
2018-09-13T06:28:23.443Z,17.10
2018-09-13T06:30:52.016Z,17.10
2018-09-13T06:33:20.531Z,17.20
2018-09-13T06:35:49.052Z,17.30
2018-09-13T06:38:17.594Z,17.30
2018-09-13T06:40:46.105Z,17.30
2018-09-13T06:43:14.946Z,17.60
2018-09-13T06:45:43.466Z,17.90
2018-09-13T06:48:12.123Z,18.10
2018-09-13T06:50:40.626Z,18.10
2018-09-13T06:53:09.088Z,18.20
2018-09-13T06:55:37.594Z,18.30
2018-09-13T06:58:06.101Z,18.40
2018-09-13T07:00:35.070Z,18.60
2018-09-13T07:03:03.612Z,18.80
2018-09-13T07:05:32.105Z,18.80
2018-09-13T07:08:00.590Z,18.90
2018-09-13T07:10:29.132Z,18.90
2018-09-13T07:12:57.636Z,18.80
2018-09-13T07:15:26.130Z,18.60
2018-09-13T07:17:54.635Z,18.50
2018-09-13T07:20:23.078Z,18.60
2018-09-13T07:22:51.610Z,18.70
2018-09-13T07:25:20.083Z,18.80
2018-09-13T07:27:48.588Z,19.00
2018-09-13T07:30:17.081Z,19.30
2018-09-13T07:32:45.541Z,19.60
2018-09-13T07:35:14.046Z,20.10
2018-09-13T07:37:42.506Z,20.30
2018-09-13T07:40:10.964Z,20.50
2018-09-13T07:42:39.526Z,20.40
2018-09-13T07:45:07.923Z,20.50
2018-09-13T07:47:36.437Z,20.70
2018-09-13T07:50:04.975Z,20.60
2018-09-13T07:52:33.554Z,21.00
2018-09-13T07:55:02.047Z,21.00
2018-09-13T07:57:30.530Z,21.30
2018-09-13T07:59:59.107Z,21.40
2018-09-13T08:02:27.599Z,21.30
2018-09-13T08:04:56.088Z,20.90
2018-09-13T08:07:24.525Z,20.90
2018-09-13T08:09:53.091Z,21.00
2018-09-13T08:12:21.588Z,20.90
2018-09-13T08:14:50.090Z,21.50
2018-09-13T08:17:18.616Z,21.60
2018-09-13T08:19:47.068Z,22.10
2018-09-13T08:22:15.674Z,22.50
2018-09-13T08:24:44.133Z,24.00
2018-09-13T08:27:12.594Z,25.90
2018-09-13T08:29:41.055Z,26.30
2018-09-13T08:32:09.555Z,26.60
2018-09-13T08:34:38.018Z,27.40
2018-09-13T08:37:06.595Z,28.30
2018-09-13T08:39:35.019Z,29.10
2018-09-13T08:42:03.492Z,30.60
2018-09-13T08:44:31.972Z,31.30
2018-09-13T08:47:00.455Z,31.40
2018-09-13T08:49:28.951Z,31.80
2018-09-13T08:51:57.514Z,31.60
2018-09-13T08:54:25.878Z,30.20
2018-09-13T08:56:54.328Z,30.00
2018-09-13T08:59:22.799Z,29.00
2018-09-13T09:01:51.234Z,28.70
2018-09-13T09:04:19.742Z,28.20
2018-09-13T09:06:48.207Z,27.30
2018-09-13T09:09:16.702Z,26.30
2018-09-13T09:11:45.165Z,26.40
2018-09-13T09:14:13.641Z,26.00
2018-09-13T09:16:42.114Z,25.80
2018-09-13T09:19:10.567Z,25.00
2018-09-13T09:21:39.023Z,24.40
2018-09-13T09:24:07.665Z,24.10
2018-09-13T09:26:36.124Z,23.90
2018-09-13T09:29:04.756Z,23.60
2018-09-13T09:31:33.173Z,23.50
2018-09-13T09:34:01.648Z,23.40
2018-09-13T09:36:30.175Z,23.50
2018-09-13T09:38:58.682Z,23.70
2018-09-13T09:41:27.205Z,23.50
2018-09-13T09:43:55.802Z,23.60
2018-09-13T09:46:24.278Z,23.60
2018-09-13T09:48:52.762Z,23.90
2018-09-13T09:51:21.251Z,24.20
2018-09-13T09:53:49.708Z,25.30
2018-09-13T09:56:18.253Z,26.80
2018-09-13T09:58:46.638Z,28.60
2018-09-13T10:01:20.280Z,30.30
2018-09-13T10:03:48.791Z,30.70
2018-09-13T10:06:17.307Z,30.70
2018-09-13T10:08:45.846Z,29.40
2018-09-13T10:11:14.319Z,29.00
2018-09-13T10:13:42.813Z,29.90
2018-09-13T10:16:16.767Z,29.70
2018-09-13T10:18:46.445Z,29.70
2018-09-13T10:22:24.235Z,29.40
2018-09-13T10:24:58.046Z,28.20
2018-09-13T10:27:31.777Z,27.40
2018-09-13T10:30:05.640Z,26.90
2018-09-13T10:32:39.483Z,26.50
2018-09-13T10:35:13.429Z,26.20
2018-09-13T10:37:47.105Z,26.50
2018-09-13T10:40:21.110Z,26.60
2018-09-13T10:42:55.043Z,26.20
2018-09-13T10:45:28.879Z,26.00
2018-09-13T10:48:02.783Z,26.30
2018-09-13T10:50:35.577Z,26.20
2018-09-13T10:53:09.309Z,26.70
2018-09-13T10:55:37.904Z,26.70
2018-09-13T10:58:06.336Z,27.10
2018-09-13T11:00:34.816Z,28.00
2018-09-13T11:03:03.283Z,28.00
2018-09-13T11:05:31.848Z,27.80
2018-09-13T11:08:00.276Z,27.90
2018-09-13T11:10:29.021Z,27.80
2018-09-13T11:13:01.051Z,28.00
2018-09-13T11:15:36.233Z,28.10
2018-09-13T11:18:06.143Z,28.70
2018-09-13T11:20:34.799Z,28.60
2018-09-13T11:23:03.280Z,28.70
2018-09-13T11:25:31.768Z,28.60
2018-09-13T11:28:00.304Z,28.60
2018-09-13T11:30:28.816Z,29.10
2018-09-13T11:32:57.323Z,29.60
2018-09-13T11:35:25.824Z,29.80
2018-09-13T11:37:54.330Z,29.10
2018-09-13T11:40:22.849Z,29.40
2018-09-13T11:42:51.311Z,30.00
2018-09-13T11:45:19.902Z,30.40
2018-09-13T11:47:49.022Z,30.70
2018-09-13T11:50:17.526Z,30.10
2018-09-13T11:52:46.014Z,29.30
2018-09-13T11:55:14.547Z,29.10
2018-09-13T11:57:43.159Z,29.10
2018-09-13T12:00:11.635Z,29.10
2018-09-13T12:02:40.090Z,28.80
2018-09-13T12:05:08.622Z,28.90
2018-09-13T12:07:37.105Z,28.90
2018-09-13T12:10:06.207Z,28.30
2018-09-13T12:12:34.694Z,28.10
2018-09-13T12:15:03.204Z,28.20
2018-09-13T12:17:31.690Z,28.60
2018-09-13T12:20:00.172Z,28.70
2018-09-13T12:22:28.753Z,28.20
2018-09-13T12:24:57.158Z,27.80
2018-09-13T12:27:25.780Z,27.60
2018-09-13T12:29:54.281Z,28.20
2018-09-13T12:32:22.814Z,28.70
2018-09-13T12:34:51.319Z,28.80
2018-09-13T12:37:19.779Z,29.30
2018-09-13T12:39:48.262Z,29.40
2018-09-13T12:42:16.705Z,29.20
2018-09-13T12:44:45.206Z,29.10
2018-09-13T12:47:13.794Z,29.20
2018-09-13T12:49:42.291Z,29.10
2018-09-13T12:52:10.754Z,28.90
2018-09-13T12:54:39.246Z,28.70
2018-09-13T12:57:07.780Z,28.30
2018-09-13T12:59:36.263Z,28.10
2018-09-13T13:02:04.833Z,28.10
2018-09-13T13:04:33.326Z,27.60
2018-09-13T13:07:01.819Z,27.60
2018-09-13T13:09:30.259Z,27.40
2018-09-13T13:11:58.767Z,27.40
2018-09-13T13:14:27.249Z,27.80
2018-09-13T13:16:55.813Z,28.10
2018-09-13T13:19:24.254Z,28.30
2018-09-13T13:21:52.745Z,28.40
2018-09-13T13:24:21.231Z,28.30
2018-09-13T13:26:49.746Z,28.20
2018-09-13T13:29:18.218Z,28.60
2018-09-13T13:31:46.670Z,28.80
2018-09-13T13:34:15.208Z,28.60
2018-09-13T13:36:43.692Z,27.90
2018-09-13T13:39:12.227Z,27.60
2018-09-13T13:41:40.714Z,27.50
2018-09-13T13:44:09.216Z,27.50
2018-09-13T13:46:37.714Z,27.50
2018-09-13T13:49:06.331Z,27.50
2018-09-13T13:51:34.806Z,27.00
2018-09-13T13:54:03.329Z,27.00
2018-09-13T13:56:31.782Z,27.00
2018-09-13T13:59:00.266Z,27.00
2018-09-13T14:01:28.798Z,27.20
2018-09-13T14:03:57.600Z,27.10
2018-09-13T14:06:26.954Z,27.30
2018-09-13T14:08:55.439Z,27.30
2018-09-13T14:11:23.946Z,27.10
2018-09-13T14:13:52.539Z,26.70
2018-09-13T14:16:21.015Z,26.70
2018-09-13T14:18:49.507Z,26.40
2018-09-13T14:21:18.014Z,26.40
2018-09-13T14:23:46.506Z,26.10
2018-09-13T14:26:15.006Z,26.30
2018-09-13T14:28:43.526Z,26.30
2018-09-13T14:31:12.032Z,26.50
2018-09-13T14:33:40.503Z,26.40
2018-09-13T14:36:08.980Z,26.50
2018-09-13T14:38:37.512Z,26.30
2018-09-13T14:41:06.255Z,26.00
2018-09-13T14:43:34.690Z,25.50
2018-09-13T14:46:03.248Z,25.20
2018-09-13T14:48:31.683Z,24.80
2018-09-13T14:51:00.202Z,24.60
2018-09-13T14:53:28.705Z,24.30
2018-09-13T14:55:57.212Z,24.20
2018-09-13T14:58:25.636Z,23.90
2018-09-13T15:00:54.170Z,23.80
2018-09-13T15:03:22.711Z,23.60
2018-09-13T15:05:51.170Z,23.50
2018-09-13T15:08:19.615Z,23.40
2018-09-13T15:10:48.103Z,23.20
2018-09-13T15:13:16.570Z,23.10
2018-09-13T15:15:45.050Z,23.00
2018-09-13T15:18:13.504Z,22.90
2018-09-13T15:20:41.952Z,22.60
2018-09-13T15:23:10.407Z,22.40
2018-09-13T15:25:38.856Z,22.10
2018-09-13T15:28:07.367Z,21.70
2018-09-13T15:30:35.844Z,21.40
2018-09-13T15:33:04.358Z,21.10
2018-09-13T15:35:32.878Z,20.90
2018-09-13T15:38:01.305Z,20.80
2018-09-13T15:40:29.784Z,20.50
2018-09-13T15:42:58.245Z,20.40
2018-09-13T15:45:26.788Z,20.20
2018-09-13T15:47:55.210Z,20.00
2018-09-13T15:50:23.724Z,19.70
2018-09-13T15:52:52.296Z,19.30
2018-09-13T15:55:20.726Z,18.90
2018-09-13T15:57:49.226Z,18.70
2018-09-13T16:00:17.690Z,18.40
2018-09-13T16:02:46.118Z,18.10
2018-09-13T16:05:14.638Z,18.00
2018-09-13T16:07:43.095Z,17.80
2018-09-13T16:10:11.578Z,17.70
2018-09-13T16:12:40.147Z,17.50
2018-09-13T16:15:08.566Z,17.30
2018-09-13T16:17:37.054Z,17.30
2018-09-13T16:20:05.763Z,17.00
2018-09-13T16:22:34.119Z,16.90
2018-09-13T16:25:02.578Z,17.00
2018-09-13T16:27:31.051Z,17.10
2018-09-13T16:29:59.515Z,16.90
2018-09-13T16:32:27.983Z,16.80
2018-09-13T16:34:56.561Z,16.80
2018-09-13T16:37:30.381Z,16.80
2018-09-13T16:40:04.276Z,16.90
2018-09-13T16:42:42.857Z,17.00
2018-09-13T16:45:11.764Z,16.90
2018-09-13T16:47:45.871Z,16.70
2018-09-13T16:50:14.388Z,16.70
2018-09-13T16:52:42.855Z,16.70
2018-09-13T16:55:11.332Z,16.60
2018-09-13T16:57:39.838Z,16.50
2018-09-13T17:00:08.296Z,16.50
2018-09-13T17:02:36.762Z,16.40
2018-09-13T17:05:05.297Z,16.30
2018-09-13T17:07:33.856Z,16.10
2018-09-13T17:10:02.317Z,16.00
2018-09-13T17:12:30.837Z,15.80
2018-09-13T17:14:59.393Z,15.70
2018-09-13T17:17:27.907Z,15.60
2018-09-13T17:19:56.419Z,15.60
2018-09-13T17:22:24.900Z,15.60
2018-09-13T17:24:53.461Z,15.60
2018-09-13T17:27:21.920Z,15.70
2018-09-13T17:29:50.406Z,15.60
2018-09-13T17:32:18.933Z,15.50
2018-09-13T17:34:47.457Z,15.30
2018-09-13T17:37:15.947Z,15.30
2018-09-13T17:39:44.441Z,15.50
2018-09-13T17:42:12.967Z,15.60
2018-09-13T17:44:41.454Z,15.60
2018-09-13T17:47:09.946Z,15.60
2018-09-13T17:49:38.460Z,15.50
2018-09-13T17:52:07.014Z,15.60
2018-09-13T17:54:35.498Z,15.80
2018-09-13T17:57:04.042Z,15.70
2018-09-13T17:59:32.539Z,15.60
2018-09-13T18:02:01.006Z,15.40
2018-09-13T18:04:29.471Z,15.30
2018-09-13T18:06:57.946Z,15.40
2018-09-13T18:09:26.467Z,15.70
2018-09-13T18:11:54.979Z,15.80
2018-09-13T18:14:23.457Z,15.70
2018-09-13T18:16:51.970Z,15.80
2018-09-13T18:19:20.454Z,15.90
2018-09-13T18:21:49.015Z,15.90
2018-09-13T18:24:17.580Z,15.80
2018-09-13T18:26:46.082Z,15.80
2018-09-13T18:29:14.644Z,15.80
2018-09-13T18:31:43.143Z,15.70
2018-09-13T18:34:11.686Z,15.60
2018-09-13T18:36:40.186Z,15.60
2018-09-13T18:39:09.938Z,15.60
2018-09-13T18:41:38.475Z,15.50
2018-09-13T18:44:07.126Z,15.60
2018-09-13T18:46:35.679Z,15.60
2018-09-13T18:49:04.187Z,15.70
2018-09-13T18:51:32.863Z,15.70
2018-09-13T18:54:01.393Z,15.70
2018-09-13T18:56:29.863Z,15.90
2018-09-13T18:58:58.339Z,15.90
2018-09-13T19:01:26.922Z,15.80
2018-09-13T19:03:55.433Z,15.70
2018-09-13T19:06:23.902Z,15.70
2018-09-13T19:08:52.410Z,15.60
2018-09-13T19:11:21.181Z,15.70
2018-09-13T19:13:49.600Z,15.70
2018-09-13T19:16:18.126Z,15.50
2018-09-13T19:18:46.654Z,15.50
2018-09-13T19:21:15.158Z,15.50
2018-09-13T19:23:43.734Z,15.50
2018-09-13T19:26:12.243Z,15.50
2018-09-13T19:28:40.786Z,15.50
2018-09-13T19:31:09.335Z,15.60
2018-09-13T19:33:38.156Z,15.60
2018-09-13T19:36:06.767Z,15.50
2018-09-13T19:38:35.320Z,15.40
2018-09-13T19:41:03.859Z,15.40
2018-09-13T19:43:32.424Z,15.40
2018-09-13T19:46:00.917Z,15.40
2018-09-13T19:48:29.423Z,15.40
2018-09-13T19:50:58.016Z,15.40
2018-09-13T19:53:26.440Z,15.40
2018-09-13T19:55:55.031Z,15.40
2018-09-13T19:58:23.547Z,15.40
2018-09-13T20:00:52.022Z,15.30
2018-09-13T20:03:20.648Z,15.20
2018-09-13T20:05:49.133Z,15.20
2018-09-13T20:08:17.603Z,15.30
2018-09-13T20:10:46.085Z,15.30
2018-09-13T20:13:14.572Z,15.20
2018-09-13T20:15:43.107Z,15.30
2018-09-13T20:18:11.631Z,15.30
2018-09-13T20:20:40.123Z,15.30
2018-09-13T20:23:08.688Z,15.30
2018-09-13T20:25:37.132Z,15.40
2018-09-13T20:28:05.656Z,15.40
2018-09-13T20:30:34.137Z,15.40
2018-09-13T20:33:02.676Z,15.30
2018-09-13T20:35:31.173Z,15.30
2018-09-13T20:37:59.611Z,15.30
2018-09-13T20:40:28.106Z,15.30
2018-09-13T20:42:56.571Z,15.30
2018-09-13T20:45:25.108Z,15.30
2018-09-13T20:47:53.529Z,15.30
2018-09-13T20:50:23.003Z,15.30
2018-09-13T20:52:51.494Z,15.40
2018-09-13T20:55:19.979Z,15.40
2018-09-13T20:57:48.483Z,15.50
2018-09-13T21:00:19.679Z,15.50
2018-09-13T21:02:49.510Z,15.40
2018-09-13T21:05:18.698Z,15.40
2018-09-13T21:07:47.291Z,15.30
2018-09-13T21:10:15.766Z,15.30
2018-09-13T21:12:44.283Z,15.30
2018-09-13T21:15:12.762Z,15.30
2018-09-13T21:17:41.221Z,15.20
2018-09-13T21:20:09.714Z,15.20
2018-09-13T21:22:38.248Z,15.10
2018-09-13T21:25:06.758Z,15.30
2018-09-13T21:27:35.246Z,15.30
2018-09-13T21:30:03.778Z,15.30
2018-09-13T21:32:32.255Z,15.30
2018-09-13T21:35:00.782Z,15.30
2018-09-13T21:37:29.259Z,15.30
2018-09-13T21:39:57.755Z,15.20
2018-09-13T21:42:26.271Z,15.20
2018-09-13T21:44:54.750Z,15.20
2018-09-13T21:47:23.223Z,15.20
2018-09-13T21:49:51.671Z,15.10
2018-09-13T21:52:20.163Z,15.10
2018-09-13T21:54:48.643Z,15.10
2018-09-13T21:57:17.090Z,15.00
2018-09-13T21:59:45.589Z,15.10
2018-09-13T22:02:14.042Z,15.10
2018-09-13T22:04:42.513Z,15.00
2018-09-13T22:07:11.022Z,15.00
2018-09-13T22:09:39.487Z,15.10
2018-09-13T22:12:08.030Z,15.00
2018-09-13T22:14:36.503Z,15.00
2018-09-13T22:17:05.083Z,15.00
2018-09-13T22:19:33.554Z,15.00
2018-09-13T22:22:02.983Z,15.10
2018-09-13T22:24:31.455Z,15.10
2018-09-13T22:26:59.908Z,15.10
2018-09-13T22:29:28.414Z,15.30
2018-09-13T22:31:56.877Z,15.20
2018-09-13T22:34:25.459Z,15.20
2018-09-13T22:36:53.910Z,15.30
2018-09-13T22:39:22.450Z,15.20
2018-09-13T22:41:50.979Z,15.20
2018-09-13T22:44:19.493Z,15.30
2018-09-13T22:46:47.951Z,15.20
2018-09-13T22:49:16.442Z,15.30
2018-09-13T22:51:44.930Z,15.30
2018-09-13T22:54:13.391Z,15.30
2018-09-13T22:56:41.847Z,15.20
2018-09-13T22:59:10.334Z,15.30
2018-09-13T23:01:38.795Z,15.40
2018-09-13T23:04:07.539Z,15.30
2018-09-13T23:06:36.022Z,15.40
2018-09-13T23:09:07.071Z,15.40
2018-09-13T23:11:35.589Z,15.40
2018-09-13T23:14:04.083Z,15.40
2018-09-13T23:16:32.690Z,15.60
2018-09-13T23:19:01.134Z,15.60
2018-09-13T23:21:29.611Z,15.60
2018-09-13T23:23:58.311Z,15.60
2018-09-13T23:26:26.781Z,15.60
2018-09-13T23:28:55.271Z,15.70
2018-09-13T23:31:23.874Z,15.60
2018-09-13T23:33:52.371Z,15.60
2018-09-13T23:36:21.257Z,15.60
2018-09-13T23:38:49.715Z,15.60
2018-09-13T23:41:18.260Z,15.70
2018-09-13T23:43:46.870Z,15.70
2018-09-13T23:46:15.463Z,15.60
2018-09-13T23:48:43.898Z,15.50
2018-09-13T23:51:12.398Z,15.50
2018-09-13T23:53:40.914Z,15.40
2018-09-13T23:56:09.434Z,15.50
2018-09-13T23:58:37.877Z,15.40
